createdAt,value
2017-10-13T00:00:18.363Z,98392.08
2017-10-13T00:02:46.123Z,98391.38
2017-10-13T00:05:13.638Z,98391.07
2017-10-13T00:07:41.163Z,98395.41
2017-10-13T00:10:08.903Z,98392.18
2017-10-13T00:12:36.428Z,98391.20
2017-10-13T00:15:03.961Z,98391.19
2017-10-13T00:17:31.788Z,98393.88
2017-10-13T00:19:59.313Z,98394.91
2017-10-13T00:22:27.841Z,98392.05
2017-10-13T00:24:55.790Z,98392.34
2017-10-13T00:27:23.323Z,98392.17
2017-10-13T00:29:50.843Z,98395.33
2017-10-13T00:32:18.571Z,98389.83
2017-10-13T00:34:46.087Z,98389.48
2017-10-13T00:37:13.615Z,98387.02
2017-10-13T00:39:41.375Z,98377.95
2017-10-13T00:42:08.895Z,98379.47
2017-10-13T00:44:36.411Z,98379.33
2017-10-13T00:47:04.231Z,98375.78
2017-10-13T00:49:31.751Z,98378.12
2017-10-13T00:51:59.279Z,98380.20
2017-10-13T00:54:26.863Z,98379.14
2017-10-13T00:56:54.388Z,98375.42
2017-10-13T00:59:22.027Z,98375.06
2017-10-13T01:01:49.792Z,98370.77
2017-10-13T01:04:17.324Z,98363.66
2017-10-13T01:06:44.860Z,98366.40
2017-10-13T01:09:12.775Z,98367.67
2017-10-13T01:11:40.299Z,98365.75
2017-10-13T01:14:07.833Z,98361.17
2017-10-13T01:16:35.422Z,98355.49
2017-10-13T01:19:02.950Z,98364.80
2017-10-13T01:21:30.476Z,98359.20
2017-10-13T01:23:58.200Z,98366.48
2017-10-13T01:26:26.071Z,98367.17
2017-10-13T01:28:53.619Z,98363.13
2017-10-13T01:31:21.528Z,98360.66
2017-10-13T01:33:49.059Z,98364.16
2017-10-13T01:36:16.583Z,98361.86
2017-10-13T01:38:44.407Z,98361.44
2017-10-13T01:41:11.924Z,98352.09
2017-10-13T01:43:39.666Z,98358.39
2017-10-13T01:46:07.394Z,98357.46
2017-10-13T01:48:34.914Z,98350.17
2017-10-13T01:51:02.440Z,98344.95
2017-10-13T01:53:30.011Z,98351.11
2017-10-13T01:55:57.534Z,98349.87
2017-10-13T01:58:25.059Z,98349.06
2017-10-13T02:00:52.746Z,98349.63
2017-10-13T02:03:20.273Z,98349.20
2017-10-13T02:05:47.806Z,98345.49
2017-10-13T02:08:15.526Z,98348.61
2017-10-13T02:10:43.065Z,98343.30
2017-10-13T02:13:10.584Z,98345.63
2017-10-13T02:15:38.751Z,98351.54
2017-10-13T02:18:06.261Z,98354.28
2017-10-13T02:20:33.799Z,98348.88
2017-10-13T02:23:01.498Z,98353.86
2017-10-13T02:25:29.016Z,98345.85
2017-10-13T02:27:56.540Z,98351.09
2017-10-13T02:30:24.140Z,98356.81
2017-10-13T02:32:51.669Z,98358.05
2017-10-13T02:35:19.196Z,98358.09
2017-10-13T02:37:46.965Z,98355.67
2017-10-13T02:40:14.491Z,98359.79
2017-10-13T02:42:42.012Z,98358.70
2017-10-13T02:45:09.736Z,98362.00
2017-10-13T02:47:37.267Z,98366.58
2017-10-13T02:50:04.792Z,98361.95
2017-10-13T02:52:32.512Z,98376.41
2017-10-13T02:55:00.080Z,98372.25
2017-10-13T02:57:27.603Z,98368.63
2017-10-13T02:59:55.224Z,98369.67
2017-10-13T03:02:22.751Z,98364.59
2017-10-13T03:04:50.279Z,98368.69
2017-10-13T03:07:18.071Z,98365.71
2017-10-13T03:09:45.591Z,98365.37
2017-10-13T03:12:13.108Z,98368.13
2017-10-13T03:14:41.055Z,98367.47
2017-10-13T03:17:08.581Z,98364.96
2017-10-13T03:19:36.103Z,98363.56
2017-10-13T03:22:03.946Z,98366.09
2017-10-13T03:24:31.512Z,98368.11
2017-10-13T03:26:59.031Z,98370.09
2017-10-13T03:29:26.718Z,98373.80
2017-10-13T03:31:55.244Z,98372.66
2017-10-13T03:34:22.772Z,98376.60
2017-10-13T03:36:50.331Z,98371.16
2017-10-13T03:39:17.856Z,98367.27
2017-10-13T03:41:45.384Z,98370.56
2017-10-13T03:44:13.097Z,98372.09
2017-10-13T03:46:40.724Z,98372.01
2017-10-13T03:49:08.243Z,98373.66
2017-10-13T03:51:35.835Z,98372.11
2017-10-13T03:54:03.363Z,98368.36
2017-10-13T03:56:30.888Z,98379.49
2017-10-13T03:58:58.456Z,98382.78
2017-10-13T04:01:25.999Z,98389.95
2017-10-13T04:03:53.527Z,98384.28
2017-10-13T04:06:21.330Z,98387.59
2017-10-13T04:08:48.847Z,98379.88
2017-10-13T04:11:16.368Z,98376.81
2017-10-13T04:13:44.006Z,98377.91
2017-10-13T04:16:11.547Z,98374.20
2017-10-13T04:18:39.095Z,98376.86
2017-10-13T04:21:06.891Z,98368.78
2017-10-13T04:23:34.422Z,98367.56
2017-10-13T04:26:01.977Z,98371.84
2017-10-13T04:28:29.631Z,98371.56
2017-10-13T04:30:57.178Z,98372.00
2017-10-13T04:33:24.695Z,98368.45
2017-10-13T04:35:52.451Z,98370.06
2017-10-13T04:38:20.007Z,98364.44
2017-10-13T04:40:47.531Z,98365.33
2017-10-13T04:43:15.418Z,98369.66
2017-10-13T04:45:42.943Z,98362.56
2017-10-13T04:48:10.471Z,98367.48
2017-10-13T04:50:38.957Z,98364.21
2017-10-13T04:53:06.500Z,98369.14
2017-10-13T04:55:34.023Z,98369.48
2017-10-13T04:58:01.902Z,98369.63
2017-10-13T05:00:29.451Z,98371.52
2017-10-13T05:02:56.974Z,98371.08
2017-10-13T05:05:24.885Z,98371.78
2017-10-13T05:07:52.407Z,98364.08
2017-10-13T05:10:19.931Z,98361.77
2017-10-13T05:12:47.688Z,98361.88
2017-10-13T05:15:15.227Z,98362.33
2017-10-13T05:17:42.754Z,98365.23
2017-10-13T05:20:10.588Z,98362.72
2017-10-13T05:22:38.182Z,98364.13
2017-10-13T05:25:05.704Z,98361.66
2017-10-13T05:27:33.453Z,98362.68
2017-10-13T05:30:00.981Z,98366.62
2017-10-13T05:32:28.502Z,98370.33
2017-10-13T05:34:56.307Z,98373.53
2017-10-13T05:37:23.827Z,98374.03
2017-10-13T05:39:51.359Z,98372.69
2017-10-13T05:42:19.106Z,98372.14
2017-10-13T05:44:46.652Z,98375.52
2017-10-13T05:47:14.171Z,98381.01
2017-10-13T05:49:41.915Z,98376.73
2017-10-13T05:52:09.465Z,98385.80
2017-10-13T05:54:37.078Z,98387.77
2017-10-13T05:57:04.780Z,98387.84
2017-10-13T05:59:32.323Z,98391.82
2017-10-13T06:01:59.849Z,98387.97
2017-10-13T06:04:27.488Z,98391.22
2017-10-13T06:06:55.113Z,98387.02
2017-10-13T06:09:22.631Z,98388.16
2017-10-13T06:11:50.451Z,98389.31
2017-10-13T06:14:18.150Z,98393.08
2017-10-13T06:16:45.831Z,98402.19
2017-10-13T06:19:13.723Z,98401.88
2017-10-13T06:21:41.523Z,98403.23
2017-10-13T06:24:09.061Z,98403.25
2017-10-13T06:26:36.635Z,98399.70
2017-10-13T06:29:04.235Z,98401.78
2017-10-13T06:31:31.798Z,98399.29
2017-10-13T06:34:00.632Z,98403.05
2017-10-13T06:36:29.116Z,98404.06
2017-10-13T06:38:56.737Z,98404.64
2017-10-13T06:41:24.438Z,98410.14
2017-10-13T06:43:51.981Z,98411.52
2017-10-13T06:46:19.519Z,98415.33
2017-10-13T06:48:47.351Z,98421.16
2017-10-13T06:51:14.900Z,98425.53
2017-10-13T06:53:42.424Z,98422.58
2017-10-13T06:56:10.470Z,98421.86
2017-10-13T06:58:38.056Z,98424.19
2017-10-13T07:01:06.549Z,98428.56
2017-10-13T07:03:34.296Z,98429.15
2017-10-13T07:06:01.832Z,98424.98
2017-10-13T07:08:29.375Z,98429.57
2017-10-13T07:10:56.983Z,98425.22
2017-10-13T07:13:24.603Z,98427.27
2017-10-13T07:15:52.172Z,98431.31
2017-10-13T07:18:19.963Z,98433.11
2017-10-13T07:20:47.547Z,98436.78
2017-10-13T07:23:15.160Z,98442.83
2017-10-13T07:25:42.960Z,98443.14
2017-10-13T07:28:10.564Z,98439.91
2017-10-13T07:30:38.119Z,98444.66
2017-10-13T07:33:05.699Z,98443.89
2017-10-13T07:35:33.227Z,98445.71
2017-10-13T07:38:00.783Z,98440.90
2017-10-13T07:40:28.703Z,98443.27
2017-10-13T07:42:56.291Z,98439.05
2017-10-13T07:45:23.839Z,98446.10
2017-10-13T07:47:51.557Z,98446.23
2017-10-13T07:50:19.165Z,98445.55
2017-10-13T07:52:46.684Z,98443.80
2017-10-13T07:55:14.584Z,98446.13
2017-10-13T07:57:42.107Z,98446.33
2017-10-13T08:00:09.632Z,98446.79
2017-10-13T08:02:37.350Z,98452.08
2017-10-13T08:05:05.337Z,98453.33
2017-10-13T08:07:32.857Z,98453.67
2017-10-13T08:10:00.408Z,98453.42
2017-10-13T08:12:27.922Z,98466.09
2017-10-13T08:14:55.443Z,98459.34
2017-10-13T08:17:23.132Z,98452.82
2017-10-13T08:19:50.648Z,98462.31
2017-10-13T08:22:18.181Z,98455.34
2017-10-13T08:24:45.890Z,98454.72
2017-10-13T08:27:13.408Z,98452.34
2017-10-13T08:29:40.932Z,98455.56
2017-10-13T08:32:09.457Z,98461.06
2017-10-13T08:34:37.003Z,98455.20
2017-10-13T08:37:04.520Z,98453.90
2017-10-13T08:39:32.084Z,98460.78
2017-10-13T08:41:59.608Z,98460.85
2017-10-13T08:44:27.127Z,98457.09
2017-10-13T08:46:54.714Z,98456.65
2017-10-13T08:49:22.232Z,98457.09
2017-10-13T08:51:49.750Z,98460.11
2017-10-13T08:54:17.306Z,98460.43
2017-10-13T08:56:45.297Z,98461.78
2017-10-13T08:59:12.828Z,98460.16
2017-10-13T09:01:40.385Z,98459.71
2017-10-13T09:04:07.900Z,98463.23
2017-10-13T09:06:35.424Z,98457.44
2017-10-13T09:09:03.117Z,98456.20
2017-10-13T09:11:30.645Z,98457.72
2017-10-13T09:13:58.179Z,98456.11
2017-10-13T09:16:25.965Z,98462.00
2017-10-13T09:18:53.495Z,98454.14
2017-10-13T09:21:21.020Z,98459.03
2017-10-13T09:23:48.667Z,98456.64
2017-10-13T09:26:16.184Z,98461.23
2017-10-13T09:28:43.698Z,98455.13
2017-10-13T09:31:11.426Z,98465.25
2017-10-13T09:33:38.939Z,98456.45
2017-10-13T09:36:06.451Z,98458.72
2017-10-13T09:38:34.199Z,98458.91
2017-10-13T09:41:01.717Z,98462.13
2017-10-13T09:43:29.235Z,98466.25
2017-10-13T09:45:56.808Z,98455.97
2017-10-13T09:48:24.327Z,98463.25
2017-10-13T09:50:51.848Z,98461.74
2017-10-13T09:53:19.659Z,98468.17
2017-10-13T09:55:47.180Z,98461.80
2017-10-13T09:58:14.699Z,98468.09
2017-10-13T10:00:42.288Z,98466.23
2017-10-13T10:03:09.801Z,98470.69
2017-10-13T10:05:37.312Z,98468.44
2017-10-13T10:08:05.219Z,98468.59
2017-10-13T10:10:32.741Z,98475.38
2017-10-13T10:13:00.255Z,98469.51
2017-10-13T10:15:27.998Z,98460.73
2017-10-13T10:17:55.511Z,98467.50
2017-10-13T10:20:23.030Z,98460.27
2017-10-13T10:22:50.781Z,98460.73
2017-10-13T10:25:18.308Z,98460.13
2017-10-13T10:27:45.823Z,98448.61
2017-10-13T10:30:13.391Z,98450.62
2017-10-13T10:32:40.911Z,98450.16
2017-10-13T10:35:08.435Z,98452.69
2017-10-13T10:37:36.339Z,98448.84
2017-10-13T10:40:03.851Z,98441.83
2017-10-13T10:42:31.372Z,98449.97
2017-10-13T10:44:59.118Z,98442.27
2017-10-13T10:47:26.631Z,98452.31
2017-10-13T10:49:54.152Z,98442.28
2017-10-13T10:52:21.895Z,98434.12
2017-10-13T10:54:49.438Z,98435.70
2017-10-13T10:57:16.956Z,98439.45
2017-10-13T10:59:44.520Z,98436.93
2017-10-13T11:02:12.035Z,98438.87
2017-10-13T11:04:39.557Z,98433.19
2017-10-13T11:07:07.455Z,98432.88
2017-10-13T11:09:34.971Z,98435.78
2017-10-13T11:12:02.493Z,98433.09
2017-10-13T11:14:30.236Z,98432.55
2017-10-13T11:16:57.760Z,98432.28
2017-10-13T11:19:25.283Z,98430.14
2017-10-13T11:21:52.850Z,98434.45
2017-10-13T11:24:20.370Z,98428.57
2017-10-13T11:26:47.879Z,98431.77
2017-10-13T11:29:15.439Z,98425.45
2017-10-13T11:31:42.964Z,98418.06
2017-10-13T11:34:10.484Z,98422.69
2017-10-13T11:36:38.271Z,98417.92
2017-10-13T11:39:05.787Z,98419.16
2017-10-13T11:41:33.308Z,98416.50
2017-10-13T11:44:01.053Z,98415.07
2017-10-13T11:46:28.570Z,98407.82
2017-10-13T11:48:56.083Z,98418.98
2017-10-13T11:51:23.855Z,98409.13
2017-10-13T11:53:51.371Z,98407.44
2017-10-13T11:56:18.899Z,98398.34
2017-10-13T11:58:46.628Z,98398.58
2017-10-13T12:01:14.155Z,98403.79
2017-10-13T12:03:41.823Z,98396.09
2017-10-13T12:06:09.700Z,98389.97
2017-10-13T12:08:37.220Z,98384.99
2017-10-13T12:11:04.745Z,98384.98
2017-10-13T12:13:32.483Z,98389.18
2017-10-13T12:16:00.000Z,98386.38
2017-10-13T12:18:27.531Z,98373.53
2017-10-13T12:20:55.490Z,98371.16
2017-10-13T12:23:23.140Z,98367.34
2017-10-13T12:25:50.663Z,98366.23
2017-10-13T12:28:18.339Z,98367.45
2017-10-13T12:30:46.123Z,98372.32
2017-10-13T12:33:13.682Z,98366.48
2017-10-13T12:35:41.432Z,98367.97
2017-10-13T12:38:08.946Z,98363.50
2017-10-13T12:40:36.565Z,98361.91
2017-10-13T12:43:04.307Z,98360.84
2017-10-13T12:45:31.837Z,98353.94
2017-10-13T12:47:59.363Z,98355.05
2017-10-13T12:50:27.091Z,98359.61
2017-10-13T12:52:54.639Z,98360.90
2017-10-13T12:55:22.214Z,98354.08
2017-10-13T12:57:49.868Z,98352.94
2017-10-13T13:00:17.392Z,98358.25
2017-10-13T13:02:44.922Z,98354.68
2017-10-13T13:05:12.648Z,98354.47
2017-10-13T13:07:40.163Z,98349.27
2017-10-13T13:10:08.562Z,98350.41
2017-10-13T13:12:36.478Z,98352.53
2017-10-13T13:15:04.008Z,98350.02
2017-10-13T13:17:31.585Z,98348.98
2017-10-13T13:19:59.430Z,98348.17
2017-10-13T13:22:26.954Z,98347.05
2017-10-13T13:24:54.475Z,98348.11
2017-10-13T13:27:22.020Z,98354.63
2017-10-13T13:29:49.795Z,98353.36
2017-10-13T13:32:17.558Z,98353.72
2017-10-13T13:34:45.325Z,98352.56
2017-10-13T13:37:12.840Z,98350.56
2017-10-13T13:39:40.355Z,98352.06
2017-10-13T13:42:07.932Z,98349.16
2017-10-13T13:44:35.466Z,98351.73
2017-10-13T13:47:03.037Z,98350.59
2017-10-13T13:49:30.983Z,98349.28
2017-10-13T13:51:58.827Z,98351.66
2017-10-13T13:54:27.025Z,98343.96
2017-10-13T13:56:54.778Z,98342.61
2017-10-13T13:59:22.344Z,98344.66
2017-10-13T14:01:49.864Z,98345.24
2017-10-13T14:04:17.675Z,98349.84
2017-10-13T14:06:45.333Z,98348.77
2017-10-13T14:09:12.879Z,98348.22
2017-10-13T14:11:40.472Z,98344.58
2017-10-13T14:14:08.083Z,98342.34
2017-10-13T14:16:35.778Z,98336.53
2017-10-13T14:19:03.527Z,98336.84
2017-10-13T14:21:31.128Z,98338.97
2017-10-13T14:23:58.728Z,98337.20
2017-10-13T14:26:26.503Z,98330.44
2017-10-13T14:28:54.043Z,98333.24
2017-10-13T14:31:21.565Z,98330.17
2017-10-13T14:33:49.491Z,98333.63
2017-10-13T14:36:17.128Z,98332.44
2017-10-13T14:38:44.648Z,98332.56
2017-10-13T14:41:12.388Z,98332.59
2017-10-13T14:43:40.118Z,98330.09
2017-10-13T14:46:07.916Z,98332.05
2017-10-13T14:48:35.887Z,98329.80
2017-10-13T14:51:03.448Z,98327.53
2017-10-13T14:53:31.047Z,98332.98
2017-10-13T14:55:58.972Z,98323.86
2017-10-13T14:58:26.483Z,98324.27
2017-10-13T15:00:54.090Z,98322.61
2017-10-13T15:03:21.792Z,98327.36
2017-10-13T15:05:49.418Z,98325.86
2017-10-13T15:08:16.946Z,98328.89
2017-10-13T15:10:44.711Z,98326.00
2017-10-13T15:13:12.238Z,98325.17
2017-10-13T15:15:39.957Z,98328.84
2017-10-13T15:18:07.708Z,98332.31
2017-10-13T15:20:35.237Z,98330.52
2017-10-13T15:23:02.784Z,98336.12
2017-10-13T15:25:35.992Z,98337.66
2017-10-13T15:28:09.130Z,98338.23
2017-10-13T15:30:42.395Z,98334.13
2017-10-13T15:36:24.423Z,98334.34
2017-10-13T15:38:57.971Z,98336.25
2017-10-13T15:44:33.435Z,98337.20
2017-10-13T15:47:06.928Z,98340.78
2017-10-13T15:49:41.028Z,98341.86
2017-10-13T15:52:14.383Z,98340.98
2017-10-13T15:54:41.918Z,98343.52
2017-10-13T15:57:09.517Z,98344.39
2017-10-13T15:59:37.232Z,98340.91
2017-10-13T16:02:05.366Z,98337.56
2017-10-13T16:04:33.015Z,98346.10
2017-10-13T16:07:01.702Z,98341.54
2017-10-13T16:09:29.256Z,98336.53
2017-10-13T16:11:57.842Z,98334.72
2017-10-13T16:14:25.591Z,98335.16
2017-10-13T16:16:53.165Z,98339.06
2017-10-13T16:19:20.707Z,98343.97
2017-10-13T16:21:48.375Z,98337.76
2017-10-13T16:24:16.047Z,98340.64
2017-10-13T16:26:43.669Z,98342.64
2017-10-13T16:29:11.236Z,98344.15
2017-10-13T16:31:38.885Z,98348.57
2017-10-13T16:34:06.578Z,98350.34
2017-10-13T16:36:35.176Z,98351.72
2017-10-13T16:39:02.843Z,98359.72
2017-10-13T16:41:30.362Z,98351.29
2017-10-13T16:43:57.921Z,98355.00
2017-10-13T16:46:25.837Z,98357.69
2017-10-13T16:48:53.658Z,98355.67
2017-10-13T16:51:22.190Z,98352.48
2017-10-13T16:53:50.135Z,98358.59
2017-10-13T16:56:18.608Z,98350.92
2017-10-13T16:58:46.501Z,98347.02
2017-10-13T17:01:14.350Z,98348.17
2017-10-13T17:03:41.908Z,98349.55
2017-10-13T17:06:09.774Z,98351.38
2017-10-13T17:08:37.305Z,98352.68
2017-10-13T17:11:05.161Z,98354.40
2017-10-13T17:13:33.022Z,98358.27
2017-10-13T17:16:00.800Z,98359.43
2017-10-13T17:18:28.695Z,98369.45
2017-10-13T17:20:56.513Z,98369.23
2017-10-13T17:23:24.137Z,98370.62
2017-10-13T17:25:51.737Z,98375.66
2017-10-13T17:28:20.673Z,98374.17
2017-10-13T17:30:48.567Z,98378.19
2017-10-13T17:33:16.143Z,98383.10
2017-10-13T17:35:44.187Z,98385.85
2017-10-13T17:38:11.934Z,98388.37
2017-10-13T17:40:40.007Z,98389.80
2017-10-13T17:43:08.165Z,98393.42
2017-10-13T17:45:35.695Z,98388.24
2017-10-13T17:48:03.256Z,98394.97
2017-10-13T17:50:31.055Z,98398.79
2017-10-13T17:52:58.597Z,98397.12
2017-10-13T17:55:26.179Z,98397.75
2017-10-13T17:57:53.771Z,98397.01
2017-10-13T18:00:21.483Z,98397.16
2017-10-13T18:02:49.062Z,98402.16
2017-10-13T18:05:16.856Z,98402.40
2017-10-13T18:07:44.384Z,98403.02
2017-10-13T18:10:14.811Z,98401.23
2017-10-13T18:12:42.575Z,98404.41
2017-10-13T18:15:10.246Z,98402.69
2017-10-13T18:17:37.784Z,98402.00
2017-10-13T18:20:07.250Z,98405.52
2017-10-13T18:22:34.968Z,98403.52
2017-10-13T18:25:02.828Z,98406.55
2017-10-13T18:27:30.898Z,98402.74
2017-10-13T18:29:58.489Z,98401.31
2017-10-13T18:32:26.394Z,98403.78
2017-10-13T18:34:54.501Z,98402.72
2017-10-13T18:37:22.365Z,98407.69
2017-10-13T18:39:50.237Z,98404.98
2017-10-13T18:42:18.205Z,98412.67
2017-10-13T18:44:45.805Z,98408.03
2017-10-13T18:47:13.530Z,98408.17
2017-10-13T18:49:41.492Z,98417.30
2017-10-13T18:52:09.247Z,98421.57
2017-10-13T18:54:37.503Z,98416.98
2017-10-13T18:57:05.501Z,98424.19
2017-10-13T18:59:33.342Z,98425.61
2017-10-13T19:02:01.336Z,98424.35
2017-10-13T19:04:29.375Z,98425.02
2017-10-13T19:06:56.966Z,98424.64
2017-10-13T19:09:24.676Z,98425.11
2017-10-13T19:11:52.815Z,98426.28
2017-10-13T19:14:20.495Z,98426.05
2017-10-13T19:16:48.124Z,98431.98
2017-10-13T19:19:15.972Z,98426.31
2017-10-13T19:21:43.553Z,98428.71
2017-10-13T19:24:11.108Z,98424.33
2017-10-13T19:26:38.860Z,98422.73
2017-10-13T19:29:06.387Z,98427.92
2017-10-13T19:31:34.093Z,98431.77
2017-10-13T19:34:02.845Z,98432.38
2017-10-13T19:36:30.382Z,98435.98
2017-10-13T19:38:58.347Z,98431.31
2017-10-13T19:41:25.991Z,98427.77
2017-10-13T19:43:53.609Z,98430.70
2017-10-13T19:46:21.388Z,98427.68
2017-10-13T19:48:49.259Z,98427.91
2017-10-13T19:51:16.799Z,98432.52
2017-10-13T19:53:44.440Z,98437.84
2017-10-13T19:56:12.085Z,98432.17
2017-10-13T19:58:39.907Z,98437.98
2017-10-13T20:01:07.674Z,98436.48
2017-10-13T20:03:35.674Z,98442.79
2017-10-13T20:06:03.609Z,98442.49
2017-10-13T20:08:31.289Z,98438.68
2017-10-13T20:10:59.443Z,98433.73
2017-10-13T20:13:27.309Z,98443.27
2017-10-13T20:15:54.901Z,98440.42
2017-10-13T20:18:22.736Z,98448.85
2017-10-13T20:20:50.386Z,98449.70
2017-10-13T20:23:18.057Z,98448.66
2017-10-13T20:25:45.736Z,98439.84
2017-10-13T20:28:13.587Z,98452.48
2017-10-13T20:30:41.441Z,98451.80
2017-10-13T20:33:09.220Z,98443.15
2017-10-13T20:35:36.824Z,98449.17
2017-10-13T20:38:04.457Z,98447.52
2017-10-13T20:40:32.336Z,98451.86
2017-10-13T20:42:59.945Z,98452.31
2017-10-13T20:45:27.532Z,98451.09
2017-10-13T20:47:55.599Z,98449.85
2017-10-13T20:50:23.257Z,98452.53
2017-10-13T20:52:50.858Z,98449.20
2017-10-13T20:55:18.584Z,98446.09
2017-10-13T20:57:46.248Z,98447.94
2017-10-13T21:00:13.903Z,98447.92
2017-10-13T21:02:41.857Z,98448.36
2017-10-13T21:05:09.738Z,98446.95
2017-10-13T21:07:37.318Z,98440.27
2017-10-13T21:10:05.491Z,98449.05
2017-10-13T21:12:33.180Z,98450.90
2017-10-13T21:15:00.870Z,98448.47
2017-10-13T21:17:28.600Z,98451.73
2017-10-13T21:19:56.177Z,98454.08
2017-10-13T21:22:23.711Z,98452.00
2017-10-13T21:24:51.714Z,98450.95
2017-10-13T21:27:19.307Z,98453.12
2017-10-13T21:29:46.866Z,98457.02
2017-10-13T21:32:14.618Z,98455.28
2017-10-13T21:34:42.193Z,98460.30
2017-10-13T21:37:09.748Z,98453.00
2017-10-13T21:39:37.529Z,98456.52
2017-10-13T21:42:05.092Z,98460.09
2017-10-13T21:44:32.638Z,98461.44
2017-10-13T21:47:00.498Z,98464.02
2017-10-13T21:49:28.465Z,98462.94
2017-10-13T21:51:56.025Z,98457.39
2017-10-13T21:54:23.607Z,98459.89
2017-10-13T21:56:51.134Z,98462.36
2017-10-13T21:59:18.655Z,98459.61
2017-10-13T22:01:46.342Z,98458.84
2017-10-13T22:04:13.869Z,98459.30
2017-10-13T22:06:41.399Z,98454.27
2017-10-13T22:09:09.348Z,98455.05
2017-10-13T22:11:36.871Z,98458.09
2017-10-13T22:14:04.395Z,98458.73
2017-10-13T22:16:32.129Z,98457.17
2017-10-13T22:18:59.650Z,98450.43
2017-10-13T22:21:27.176Z,98452.49
2017-10-13T22:23:54.909Z,98457.88
2017-10-13T22:26:22.466Z,98454.27
2017-10-13T22:28:50.032Z,98453.41
2017-10-13T22:31:17.791Z,98452.37
2017-10-13T22:33:45.311Z,98450.14
2017-10-13T22:36:12.836Z,98449.48
2017-10-13T22:38:40.408Z,98444.08
2017-10-13T22:41:07.938Z,98441.94
2017-10-13T22:43:35.463Z,98437.27
2017-10-13T22:46:03.228Z,98434.91
2017-10-13T22:48:30.748Z,98434.30
2017-10-13T22:50:58.271Z,98437.64
2017-10-13T22:53:26.216Z,98442.17
2017-10-13T22:55:53.745Z,98437.58
2017-10-13T22:58:21.272Z,98436.09
2017-10-13T23:00:48.936Z,98435.98
2017-10-13T23:03:16.467Z,98441.11
2017-10-13T23:05:44.038Z,98446.09
2017-10-13T23:08:11.582Z,98447.88
2017-10-13T23:10:39.146Z,98446.94
2017-10-13T23:13:06.752Z,98452.89
2017-10-13T23:15:34.569Z,98452.71
2017-10-13T23:18:02.130Z,98457.16
2017-10-13T23:20:29.686Z,98453.47
2017-10-13T23:22:57.267Z,98459.18
2017-10-13T23:25:24.783Z,98456.43
2017-10-13T23:27:52.368Z,98452.09
2017-10-13T23:30:21.603Z,98455.33
2017-10-13T23:32:49.156Z,98463.05
2017-10-13T23:35:17.195Z,98464.83
2017-10-13T23:37:44.742Z,98459.67
2017-10-13T23:40:12.263Z,98459.02
2017-10-13T23:42:39.793Z,98455.45
2017-10-13T23:45:08.968Z,98450.76
2017-10-13T23:47:36.525Z,98448.80
2017-10-13T23:50:04.064Z,98446.61
2017-10-13T23:52:39.398Z,98448.92
2017-10-13T23:55:06.964Z,98451.63
2017-10-13T23:57:34.648Z,98452.54
